< < Back
Terminal Aerodrome Forecast


Current Version              Previous Versions:   1  2  3  4  5  6  7  8  9  

Terminal Aerodrome Forecast

204
FTUS44 KOHX 171500 AAA
TAFCSV
TAF AMD
KCSV 171515Z 1715/1812 16007G15KT P6SM SCT250
     FM180000 16003KT P6SM BKN250=

Latest METAR

186
SAUS70 KWBC 180000
MTRCSV
METAR KCSV 172353Z AUTO 00000KT 10SM CLR 16/M01 A3030 RMK AO2 SLP257
T01561011 10172 20144 51004


USA.gov is the U.S. government's official web portal to all federal, state and local government web resources and services.